Bundyville, New York
Current Conditions -  °F | °C
As of 6:18 PM on Wednesday 26 Nov 2014 (Local Time) from KFZY Reporting Station
Light Snow Light Snow  
Wind Chill: -6°   Ceiling: 700
Heat Index: -1°   Visibility: 2.5mi
Dew Point: -3°   Wind: 12mph
Humidity: 85%   Direction: 20°NNE
Pressure: 30.06"   Gusts: NA
Location:  43.4571°N, 76.4163°W
Report Text: KFZY 262318Z AUTO 02010KT 2 1/2SM -SN BR BKN007 OVC025 M01/M03 A3006 RMK AO2 P0000 T10111033
Loading
Personal Weather Stations






























Interactive Weather Map New forecast layout! Learn more

10-Day Weather Forecast

Advertisements
Track Severe Weather on mobile